Time;durP1;ratioP1;P1;durP2;ratioP2;P2;SDS_P1;SDS_P2;PMS_P1;PMS_P2;Temp;Humidity;BMP_temperature;BMP_pressure;BME280_temperature;BME280_humidity;BME280_pressure;Samples;Min_cycle;Max_cycle;Signal;HPM_P1;HPM_P2
2023/06/10 00:02:16;;;;;;;7.60;5.80;;;;;;;20.00;49.14;100659.99;110964;1210;98934;-62
2023/06/10 00:04:42;;;;;;;15.50;6.50;;;;;;;19.94;49.43;100655.58;110954;1211;99743;-63
2023/06/10 00:07:08;;;;;;;22.40;6.60;;;;;;;19.90;49.60;100658.42;110911;1209;138632;-62
2023/06/10 00:09:40;;;;;;;9.60;6.60;;;;;;;19.84;49.74;100658.58;111042;1212;99044;-62
2023/06/10 00:12:07;;;;;;;11.10;6.70;;;;;;;19.79;49.88;100660.23;110840;1212;139599;-63
2023/06/10 00:14:33;;;;;;;13.90;6.70;;;;;;;19.76;49.92;100658.29;110977;1212;99080;-63
2023/06/10 00:16:59;;;;;;;16.50;6.50;;;;;;;19.72;49.93;100658.11;110810;1212;139748;-63
2023/06/10 00:19:29;;;;;;;11.40;6.80;;;;;;;19.66;49.97;100659.09;111023;1209;98951;-63
2023/06/10 00:21:56;;;;;;;9.80;6.20;;;;;;;19.64;50.19;100659.45;111001;1209;99053;-63
2023/06/10 00:24:21;;;;;;;11.70;7.10;;;;;;;19.63;50.13;100661.41;110831;1212;139856;-63
2023/06/10 00:26:47;;;;;;;12.20;6.50;;;;;;;19.56;50.31;100662.15;111035;1209;99465;-62
2023/06/10 00:29:14;;;;;;;10.00;7.00;;;;;;;19.50;50.39;100663.70;110888;1212;138911;-62
2023/06/10 00:31:39;;;;;;;12.20;7.00;;;;;;;19.47;50.55;100664.08;110946;1209;99119;-63
2023/06/10 00:34:05;;;;;;;11.40;6.60;;;;;;;19.42;50.77;100664.48;111023;1209;99114;-63
2023/06/10 00:36:30;;;;;;;16.00;7.00;;;;;;;19.32;51.15;100663.27;110857;1212;140219;-63
2023/06/10 00:38:56;;;;;;;11.10;6.60;;;;;;;19.27;51.40;100664.24;110995;1219;97793;-63
2023/06/10 00:41:22;;;;;;;11.90;7.50;;;;;;;19.23;51.60;100666.21;110903;1212;140672;-62
2023/06/10 00:43:48;;;;;;;11.50;7.40;;;;;;;19.21;51.70;100664.58;110943;1212;99076;-63
2023/06/10 00:46:13;;;;;;;14.90;6.60;;;;;;;19.16;52.22;100664.05;110954;1212;98940;-63
2023/06/10 00:48:41;;;;;;;19.20;8.10;;;;;;;19.10;52.41;100664.47;111064;1212;139017;-63
2023/06/10 00:51:08;;;;;;;16.10;7.90;;;;;;;19.04;52.86;100666.75;110931;1212;98926;-62
2023/06/10 00:53:39;;;;;;;11.50;7.30;;;;;;;18.98;53.03;100666.31;110920;1209;139830;-63
2023/06/10 00:56:05;;;;;;;10.80;6.80;;;;;;;18.92;53.27;100672.64;110983;1212;98981;-63
2023/06/10 00:58:31;;;;;;;12.80;6.80;;;;;;;18.86;53.88;100671.64;110966;1212;98932;-62
2023/06/10 01:00:57;;;;;;;13.20;7.50;;;;;;;18.79;54.24;100674.55;110905;1212;139492;-63
2023/06/10 01:03:23;;;;;;;13.30;6.10;;;;;;;18.75;54.34;100672.86;110936;1208;99010;-63
2023/06/10 01:06:01;;;;;;;9.80;6.20;;;;;;;18.74;54.56;100680.20;110976;1208;139464;-65
2023/06/10 01:09:04;;;;;;;11.50;6.50;;;;;;;18.67;55.01;100675.63;110985;1212;104293;-63
2023/06/10 01:11:41;;;;;;;11.00;6.10;;;;;;;18.64;55.15;100676.41;110819;1212;139798;-63
2023/06/10 01:14:08;;;;;;;10.80;6.80;;;;;;;18.63;55.53;100680.52;110904;1212;99182;-63
2023/06/10 01:16:35;;;;;;;10.70;6.30;;;;;;;18.61;55.52;100683.14;110960;1208;98943;-63
2023/06/10 01:19:01;;;;;;;14.40;6.60;;;;;;;18.60;55.75;100682.17;110790;1208;140378;-62
2023/06/10 01:21:26;;;;;;;14.50;6.60;;;;;;;18.55;55.81;100686.34;110920;1212;99063;-62
2023/06/10 01:23:56;;;;;;;9.40;6.10;;;;;;;18.50;55.98;100687.38;110873;1210;138844;-62
2023/06/10 01:26:30;;;;;;;8.40;6.30;;;;;;;18.46;56.43;100691.16;111065;1208;99013;-62
2023/06/10 01:29:17;;;;;;;16.70;7.20;;;;;;;18.40;56.59;100695.25;110842;1209;138377;-62
2023/06/10 01:31:51;;;;;;;9.30;6.10;;;;;;;18.32;56.88;100699.81;110981;1209;103801;-62
2023/06/10 01:34:18;;;;;;;7.70;5.90;;;;;;;18.26;57.11;100699.16;110888;1208;98973;-62
2023/06/10 01:36:49;;;;;;;9.70;6.30;;;;;;;18.24;57.10;100699.35;110818;1212;140108;-62
2023/06/10 01:39:16;;;;;;;13.60;6.10;;;;;;;18.20;57.51;100703.48;110928;1212;99022;-62
2023/06/10 01:41:42;;;;;;;14.90;7.10;;;;;;;18.15;57.59;100705.98;110864;1211;140464;-62
2023/06/10 01:44:08;;;;;;;11.10;6.30;;;;;;;18.15;57.75;100700.71;110923;1210;99446;-62
2023/06/10 01:46:33;;;;;;;11.50;5.80;;;;;;;18.15;57.82;100704.95;111025;1209;99019;-62
2023/06/10 01:48:58;;;;;;;13.40;6.40;;;;;;;18.11;57.75;100704.86;110787;1212;140549;-62
2023/06/10 01:51:23;;;;;;;11.30;7.10;;;;;;;18.08;58.03;100706.16;111030;1211;99037;-62
2023/06/10 01:53:49;;;;;;;14.90;6.90;;;;;;;18.08;58.12;100707.05;110815;1212;138838;-61
2023/06/10 01:56:19;;;;;;;11.40;6.20;;;;;;;18.07;58.11;100705.88;110857;1212;98982;-62
2023/06/10 01:58:45;;;;;;;14.20;6.70;;;;;;;18.06;58.15;100707.36;110946;1212;99015;-62
2023/06/10 02:01:10;;;;;;;15.40;5.80;;;;;;;18.03;58.51;100711.42;110851;1208;139446;-62
2023/06/10 02:03:36;;;;;;;8.50;6.40;;;;;;;17.98;58.74;100712.13;111002;1210;99525;-62
2023/06/10 02:06:01;;;;;;;10.70;6.30;;;;;;;17.95;58.63;100713.42;110781;1208;139452;-62
2023/06/10 02:08:27;;;;;;;15.20;7.50;;;;;;;17.94;58.69;100710.08;110957;1208;99091;-62
2023/06/10 02:10:53;;;;;;;12.80;7.00;;;;;;;17.94;58.82;100712.10;110882;1212;139150;-62
2023/06/10 02:13:19;;;;;;;9.50;6.10;;;;;;;17.93;59.05;100713.40;110938;1212;98834;-62
2023/06/10 02:15:44;;;;;;;10.70;6.20;;;;;;;17.91;59.20;100711.25;111061;1212;100092;-62
2023/06/10 02:18:11;;;;;;;10.70;6.10;;;;;;;17.90;59.37;100712.73;110859;1211;138982;-62
2023/06/10 02:20:37;;;;;;;12.20;7.00;;;;;;;17.91;59.38;100715.05;110937;1208;104887;-62
2023/06/10 02:23:03;;;;;;;12.90;7.50;;;;;;;17.92;59.46;100711.70;110836;1212;140192;-62
2023/06/10 02:25:28;;;;;;;15.50;7.10;;;;;;;17.91;59.57;100713.58;110969;1212;99256;-62
2023/06/10 02:27:53;;;;;;;15.20;6.90;;;;;;;17.90;59.37;100713.13;110926;1212;99043;-62
2023/06/10 02:30:19;;;;;;;10.60;5.70;;;;;;;17.89;59.46;100717.66;110962;1208;142979;-62
2023/06/10 02:32:47;;;;;;;13.80;6.40;;;;;;;17.88;59.68;100724.27;110914;1208;106810;-62
2023/06/10 02:35:14;;;;;;;16.20;6.60;;;;;;;17.86;59.73;100726.20;110750;1224;139493;-62
2023/06/10 02:37:39;;;;;;;14.40;6.60;;;;;;;17.87;59.72;100723.99;111037;1211;99607;-62
2023/06/10 02:40:06;;;;;;;15.70;6.70;;;;;;;17.86;59.79;100725.69;111011;1209;98944;-62
2023/06/10 02:42:31;;;;;;;11.40;6.70;;;;;;;17.83;59.89;100727.86;110792;1208;141017;-61
2023/06/10 02:44:56;;;;;;;11.70;6.60;;;;;;;17.81;60.00;100727.65;110920;1212;98966;-62
2023/06/10 02:47:21;;;;;;;10.60;6.20;;;;;;;17.80;60.01;100729.21;110885;1211;138986;-62
2023/06/10 02:49:47;;;;;;;13.40;6.90;;;;;;;17.78;60.18;100726.61;110960;1207;99065;-62
2023/06/10 02:52:12;;;;;;;16.70;7.00;;;;;;;17.79;60.17;100730.34;110944;1212;98903;-62
2023/06/10 02:54:38;;;;;;;12.40;6.50;;;;;;;17.82;60.07;100730.45;110838;1212;140833;-62
2023/06/10 02:57:03;;;;;;;7.80;5.70;;;;;;;17.87;59.97;100733.56;110924;1228;98942;-62
2023/06/10 02:59:28;;;;;;;13.20;5.90;;;;;;;17.89;60.00;100735.21;110865;1209;139133;-62
2023/06/10 03:01:54;;;;;;;8.40;5.90;;;;;;;17.90;59.97;100733.86;110942;1211;99024;-62
2023/06/10 03:04:20;;;;;;;8.70;5.70;;;;;;;17.92;59.78;100737.13;111042;1208;98988;-62
2023/06/10 03:06:46;;;;;;;10.90;6.30;;;;;;;17.93;59.80;100740.92;110873;1212;138206;-62
2023/06/10 03:09:13;;;;;;;16.70;7.30;;;;;;;17.95;59.61;100740.42;110903;1208;98968;-62
2023/06/10 03:11:38;;;;;;;19.70;6.60;;;;;;;17.97;59.50;100740.23;110866;1212;139327;-62
2023/06/10 03:14:03;;;;;;;14.80;6.50;;;;;;;17.98;59.42;100739.97;111045;1209;98966;-62
2023/06/10 03:16:30;;;;;;;13.20;6.50;;;;;;;18.00;59.24;100741.14;110978;1208;99500;-62
2023/06/10 03:18:55;;;;;;;12.80;6.20;;;;;;;17.99;59.15;100739.20;110821;1212;139831;-62
2023/06/10 03:21:21;;;;;;;13.50;5.90;;;;;;;18.02;58.88;100746.58;111022;1209;98908;-62
2023/06/10 03:23:46;;;;;;;14.10;6.10;;;;;;;18.02;58.78;100748.52;110879;1208;140132;-62
2023/06/10 03:26:14;;;;;;;12.30;6.00;;;;;;;18.01;58.81;100748.46;110984;1212;98959;-62
2023/06/10 03:28:40;;;;;;;13.40;6.20;;;;;;;18.00;58.79;100751.61;110983;1212;99067;-62
2023/06/10 03:31:05;;;;;;;12.00;7.40;;;;;;;17.99;58.52;100752.73;110815;1216;138996;-62
2023/06/10 03:33:31;;;;;;;10.40;5.90;;;;;;;17.98;58.47;100754.27;111021;1212;99531;-62
2023/06/10 03:35:56;;;;;;;11.90;6.60;;;;;;;17.98;58.21;100757.50;110808;1212;138844;-62
2023/06/10 03:38:21;;;;;;;8.50;5.30;;;;;;;17.99;58.14;100757.30;111055;1212;98982;-62
2023/06/10 03:40:47;;;;;;;9.20;6.10;;;;;;;17.98;58.09;100756.41;111004;1210;104385;-62
2023/06/10 03:43:12;;;;;;;12.60;6.40;;;;;;;17.99;57.94;100757.42;110837;1212;138583;-62
2023/06/10 03:45:37;;;;;;;13.20;6.40;;;;;;;18.02;57.84;100763.21;111041;1208;99157;-62
2023/06/10 03:48:04;;;;;;;8.90;6.30;;;;;;;18.04;57.80;100764.30;110823;1211;138858;-62
2023/06/10 03:50:29;;;;;;;10.80;6.10;;;;;;;18.06;57.56;100766.55;111079;1208;98940;-62
2023/06/10 03:52:55;;;;;;;9.30;5.90;;;;;;;18.06;57.38;100769.96;110905;1208;139806;-62
2023/06/10 03:55:21;;;;;;;10.10;6.20;;;;;;;18.08;57.22;100777.38;110999;1208;99011;-62
2023/06/10 03:57:48;;;;;;;12.60;5.90;;;;;;;18.11;57.09;100782.23;110976;1209;99013;-62
2023/06/10 04:00:15;;;;;;;9.10;5.50;;;;;;;18.12;57.04;100784.34;110821;1212;138733;-62
2023/06/10 04:02:49;;;;;;;9.60;5.80;;;;;;;18.11;56.78;100792.35;111114;1209;99452;-62
2023/06/10 04:05:16;;;;;;;17.50;7.10;;;;;;;18.12;56.67;100795.34;110803;1212;138729;-62
2023/06/10 04:07:42;;;;;;;10.90;5.70;;;;;;;18.13;56.64;100798.53;110959;1209;98969;-62
2023/06/10 04:10:08;;;;;;;9.10;6.10;;;;;;;18.15;56.51;100801.14;110961;1211;99065;-62
2023/06/10 04:12:35;;;;;;;10.90;5.30;;;;;;;18.15;56.25;100802.02;110872;1212;139058;-62
2023/06/10 04:15:00;;;;;;;10.60;4.90;;;;;;;18.17;56.34;100808.96;110969;1208;97834;-62
2023/06/10 04:17:26;;;;;;;12.40;5.20;;;;;;;18.18;56.20;100816.13;110837;1212;138411;-62
2023/06/10 04:19:51;;;;;;;14.70;5.60;;;;;;;18.21;56.08;100815.29;110954;1208;98939;-62
2023/06/10 04:22:17;;;;;;;9.70;5.90;;;;;;;18.26;55.92;100824.54;110986;1212;99090;-62
2023/06/10 04:24:43;;;;;;;11.70;5.40;;;;;;;18.28;55.68;100827.13;110860;1212;138471;-62
2023/06/10 04:27:08;;;;;;;10.50;6.00;;;;;;;18.31;55.66;100833.02;110936;1208;99550;-62
2023/06/10 04:29:34;;;;;;;8.30;5.00;;;;;;;18.36;55.53;100839.23;110912;1211;139977;-62
2023/06/10 04:32:01;;;;;;;11.90;6.10;;;;;;;18.36;55.24;100837.20;110946;1211;99092;-62
2023/06/10 04:34:27;;;;;;;10.90;5.70;;;;;;;18.35;55.38;100842.85;110956;1208;99806;-62
2023/06/10 04:36:52;;;;;;;8.90;5.90;;;;;;;18.34;55.36;100841.16;110950;1212;139102;-62
2023/06/10 04:39:18;;;;;;;9.30;6.20;;;;;;;18.34;55.32;100848.73;110930;1210;99028;-62
2023/06/10 04:41:43;;;;;;;11.50;5.60;;;;;;;18.35;55.44;100848.84;110833;1208;138863;-62
2023/06/10 04:44:09;;;;;;;18.50;6.20;;;;;;;18.33;55.45;100846.07;111016;1208;99068;-62
2023/06/10 04:46:34;;;;;;;16.90;6.40;;;;;;;18.32;55.44;100848.89;110943;1212;99021;-62
2023/06/10 04:48:59;;;;;;;7.90;5.50;;;;;;;18.32;55.62;100849.56;110836;1220;138413;-62
2023/06/10 04:51:25;;;;;;;10.70;5.90;;;;;;;18.32;55.74;100848.30;111068;1208;98929;-62
2023/06/10 04:53:51;;;;;;;12.50;6.00;;;;;;;18.35;55.81;100850.42;110863;1208;139001;-64
2023/06/10 04:56:16;;;;;;;12.50;6.10;;;;;;;18.36;55.89;100857.08;111043;1211;98948;-62
2023/06/10 04:58:41;;;;;;;13.20;6.00;;;;;;;18.36;55.96;100865.93;110928;1209;99036;-62
2023/06/10 05:01:07;;;;;;;17.30;6.00;;;;;;;18.37;56.11;100864.45;110786;1208;138874;-62
2023/06/10 05:03:32;;;;;;;13.60;6.10;;;;;;;18.43;56.13;100869.59;111024;1208;98943;-61
2023/06/10 05:05:57;;;;;;;11.10;5.70;;;;;;;18.51;56.14;100868.16;110820;1212;138691;-61
2023/06/10 05:08:23;;;;;;;11.80;5.70;;;;;;;18.57;55.98;100879.29;110992;1208;98942;-61
2023/06/10 05:10:48;;;;;;;16.90;6.40;;;;;;;18.64;55.88;100880.61;110825;1208;139501;-63
2023/06/10 05:13:13;;;;;;;12.20;6.10;;;;;;;18.71;55.97;100881.52;110919;1211;99054;-61
2023/06/10 05:15:38;;;;;;;12.20;5.40;;;;;;;18.77;55.69;100881.05;111018;1212;99027;-61
2023/06/10 05:18:04;;;;;;;12.30;5.80;;;;;;;18.83;55.64;100883.90;110804;1208;138749;-61
2023/06/10 05:20:29;;;;;;;14.10;5.80;;;;;;;18.88;55.46;100885.66;110996;1212;99078;-62
2023/06/10 05:22:54;;;;;;;10.60;5.60;;;;;;;18.93;55.29;100885.48;110797;1219;140034;-61
2023/06/10 05:25:20;;;;;;;15.60;6.00;;;;;;;18.99;55.16;100887.73;110952;1212;99086;-61
2023/06/10 05:27:45;;;;;;;11.50;5.90;;;;;;;19.08;55.08;100889.79;110937;1212;98953;-61
2023/06/10 05:30:11;;;;;;;10.40;5.80;;;;;;;19.16;54.82;100897.72;110794;1208;139596;-61
2023/06/10 05:32:36;;;;;;;13.90;5.40;;;;;;;19.23;54.75;100897.77;111037;1212;98945;-63
2023/06/10 05:35:03;;;;;;;19.50;6.50;;;;;;;19.31;54.66;100894.61;110818;1208;138550;-61
2023/06/10 05:37:29;;;;;;;14.20;6.00;;;;;;;19.37;54.45;100892.88;110941;1208;98995;-61
2023/06/10 05:39:54;;;;;;;10.70;5.50;;;;;;;19.44;54.32;100894.64;111026;1208;99126;-62
2023/06/10 05:42:19;;;;;;;8.60;5.10;;;;;;;19.56;54.27;100899.79;110913;1212;138845;-61
2023/06/10 05:44:45;;;;;;;6.60;4.20;;;;;;;19.63;54.08;100901.63;110950;1212;99034;-62
2023/06/10 05:47:10;;;;;;;13.30;5.00;;;;;;;19.66;53.85;100904.09;110881;1208;139623;-62
2023/06/10 05:49:35;;;;;;;10.60;5.10;;;;;;;19.70;53.77;100907.90;110922;1220;98927;-63
2023/06/10 05:52:00;;;;;;;13.00;6.00;;;;;;;19.73;53.67;100901.31;110936;1208;98974;-62
2023/06/10 05:54:26;;;;;;;17.50;5.70;;;;;;;19.77;53.43;100900.48;110862;1209;138766;-62
2023/06/10 05:56:52;;;;;;;15.50;6.60;;;;;;;19.80;53.38;100903.02;110964;1212;98966;-62
2023/06/10 05:59:17;;;;;;;12.30;6.00;;;;;;;19.82;53.39;100902.15;110854;1208;138970;-62
2023/06/10 06:01:42;;;;;;;11.00;6.10;;;;;;;19.83;53.37;100907.10;110951;1208;100506;-62
2023/06/10 06:04:07;;;;;;;12.20;5.70;;;;;;;19.91;53.57;100905.75;111007;1212;98979;-61
2023/06/10 06:06:34;;;;;;;10.30;5.40;;;;;;;20.00;53.41;100903.77;110834;1208;138760;-61
2023/06/10 06:09:00;;;;;;;12.80;5.30;;;;;;;20.00;53.30;100902.64;110919;1211;98970;-61
2023/06/10 06:11:26;;;;;;;15.90;5.80;;;;;;;20.03;53.49;100903.35;110919;1212;138471;-64
2023/06/10 06:13:51;;;;;;;12.00;5.20;;;;;;;20.07;53.36;100898.65;110987;1208;104275;-64
2023/06/10 06:16:18;;;;;;;10.30;5.50;;;;;;;20.12;53.30;100896.83;110929;1208;98227;-64
2023/06/10 06:18:43;;;;;;;10.80;5.00;;;;;;;20.14;53.28;100900.82;110910;1212;139278;-63
2023/06/10 06:21:09;;;;;;;12.10;5.30;;;;;;;20.19;53.18;100900.65;110935;1208;97918;-63
2023/06/10 06:23:34;;;;;;;10.60;5.40;;;;;;;20.23;53.16;100901.17;110864;1212;138611;-62
2023/06/10 06:25:59;;;;;;;12.00;5.60;;;;;;;20.24;53.08;100903.08;110958;1211;99059;-63
2023/06/10 06:28:28;;;;;;;11.80;4.90;;;;;;;20.29;53.16;100896.19;110909;1208;98984;-62
2023/06/10 06:30:54;;;;;;;16.90;5.60;;;;;;;20.36;53.10;100897.27;110965;1208;140076;-62
2023/06/10 06:33:19;;;;;;;10.60;5.60;;;;;;;20.38;53.18;100895.49;110945;1230;98935;-61
2023/06/10 06:35:45;;;;;;;12.50;5.40;;;;;;;20.40;53.19;100899.11;110904;1208;139384;-64
2023/06/10 06:38:10;;;;;;;7.40;4.70;;;;;;;20.41;53.13;100901.39;110886;1212;99010;-61
2023/06/10 06:40:35;;;;;;;8.90;4.90;;;;;;;20.49;53.23;100901.35;111034;1213;99076;-61
2023/06/10 06:43:01;;;;;;;9.00;4.80;;;;;;;20.56;53.11;100903.15;110816;1212;140425;-62
2023/06/10 06:45:26;;;;;;;13.80;5.60;;;;;;;20.66;53.16;100905.36;110926;1212;98957;-62
2023/06/10 06:47:51;;;;;;;10.40;5.00;;;;;;;20.81;53.05;100907.42;110896;1208;153458;-61
2023/06/10 06:50:16;;;;;;;14.30;5.90;;;;;;;20.89;52.71;100911.23;110918;1212;98932;-64
2023/06/10 06:52:42;;;;;;;12.30;5.10;;;;;;;20.91;52.29;100912.40;110995;1208;99052;-62
2023/06/10 06:55:07;;;;;;;10.90;5.60;;;;;;;20.90;51.77;100909.04;110797;1208;138553;-62
2023/06/10 06:57:32;;;;;;;13.10;5.20;;;;;;;20.87;51.50;100913.08;110977;1211;98964;-61
2023/06/10 06:59:58;;;;;;;11.30;5.60;;;;;;;20.89;51.41;100910.55;110891;1208;140341;-62
2023/06/10 07:02:23;;;;;;;10.10;4.80;;;;;;;20.96;51.37;100913.76;110919;1212;99318;-62
2023/06/10 07:04:49;;;;;;;10.50;5.10;;;;;;;21.01;50.94;100917.55;110906;1209;139945;-62
2023/06/10 07:07:15;;;;;;;12.70;5.10;;;;;;;21.00;50.92;100919.08;110879;1212;99036;-62
2023/06/10 07:09:40;;;;;;;10.60;4.80;;;;;;;21.00;50.68;100920.36;110958;1212;98951;-61
2023/06/10 07:12:06;;;;;;;14.10;5.70;;;;;;;20.94;50.81;100925.04;110833;1208;138131;-62
2023/06/10 07:14:31;;;;;;;16.00;5.60;;;;;;;20.93;50.80;100924.39;111289;1210;99034;-62
2023/06/10 07:16:57;;;;;;;12.10;5.50;;;;;;;20.92;50.88;100919.02;110865;1210;139137;-61
2023/06/10 07:19:22;;;;;;;16.70;6.60;;;;;;;20.97;51.01;100922.41;111038;1212;98264;-62
2023/06/10 07:21:47;;;;;;;12.90;6.00;;;;;;;21.07;51.00;100923.75;110960;1208;99059;-61
2023/06/10 07:24:12;;;;;;;15.20;5.80;;;;;;;21.14;51.00;100922.09;110902;1212;138356;-61
2023/06/10 07:26:38;;;;;;;8.70;5.20;;;;;;;21.23;51.05;100922.63;110977;1211;98952;-62
2023/06/10 07:29:03;;;;;;;13.60;5.50;;;;;;;21.31;50.84;100927.44;110862;1208;139367;-62
2023/06/10 07:31:28;;;;;;;13.00;5.40;;;;;;;21.33;50.83;100927.43;110959;1211;99007;-62
2023/06/10 07:33:54;;;;;;;10.00;5.00;;;;;;;21.39;50.73;100927.15;110931;1212;98276;-62
2023/06/10 07:36:19;;;;;;;9.80;5.00;;;;;;;21.46;50.72;100925.04;110880;1208;138157;-62
2023/06/10 07:38:44;;;;;;;12.70;5.20;;;;;;;21.53;50.58;100924.98;110935;1209;99062;-61
2023/06/10 07:41:10;;;;;;;9.00;5.40;;;;;;;21.61;50.52;100926.66;110889;1211;138396;-62
2023/06/10 07:43:37;;;;;;;11.60;5.10;;;;;;;21.68;50.25;100926.64;110949;1208;98949;-62
2023/06/10 07:46:02;;;;;;;10.90;5.40;;;;;;;21.73;50.09;100924.63;111029;1212;99435;-62
2023/06/10 07:48:27;;;;;;;10.40;5.00;;;;;;;21.75;49.87;100917.83;110918;1208;138092;-63
2023/06/10 07:50:53;;;;;;;10.30;5.20;;;;;;;21.81;49.66;100921.56;110935;1209;99096;-64
2023/06/10 07:53:18;;;;;;;9.10;4.90;;;;;;;21.90;49.72;100920.05;110842;1208;138445;-62
2023/06/10 07:55:44;;;;;;;12.00;4.90;;;;;;;22.10;49.52;100918.90;111003;1209;99041;-62
2023/06/10 07:58:10;;;;;;;11.60;5.00;;;;;;;22.27;49.24;100922.12;110927;1208;97790;-62
2023/06/10 08:00:35;;;;;;;8.50;5.40;;;;;;;22.39;49.18;100920.52;110829;1208;139065;-62
2023/06/10 08:03:00;;;;;;;9.30;5.40;;;;;;;22.49;48.99;100915.60;111002;1208;99038;-63
2023/06/10 08:05:26;;;;;;;9.70;4.90;;;;;;;22.61;48.88;100914.85;110845;1208;140261;-62
2023/06/10 08:07:51;;;;;;;11.30;4.60;;;;;;;22.69;48.57;100917.94;111005;1208;99191;-62
2023/06/10 08:10:16;;;;;;;11.30;4.80;;;;;;;22.76;48.42;100916.80;110934;1208;98969;-62
2023/06/10 08:12:42;;;;;;;11.90;5.00;;;;;;;22.87;48.19;100919.06;110831;1213;138663;-62
2023/06/10 08:15:07;;;;;;;11.80;5.90;;;;;;;23.00;47.84;100920.14;110918;1212;98967;-62
2023/06/10 08:17:33;;;;;;;11.90;5.40;;;;;;;23.04;47.51;100917.94;110853;1212;138506;-63
2023/06/10 08:19:58;;;;;;;11.10;4.50;;;;;;;23.05;47.26;100922.20;110976;1219;98953;-61
2023/06/10 08:22:23;;;;;;;13.50;5.50;;;;;;;23.11;47.15;100919.64;110941;1212;99063;-63
2023/06/10 08:24:49;;;;;;;13.90;4.40;;;;;;;23.27;47.12;100919.39;110854;1208;138994;-61
2023/06/10 08:27:14;;;;;;;12.50;4.20;;;;;;;23.44;46.64;100923.99;110965;1211;99059;-61
2023/06/10 08:29:39;;;;;;;11.60;4.70;;;;;;;23.58;46.81;100923.99;110805;1212;139388;-61
2023/06/10 08:32:05;;;;;;;9.50;4.90;;;;;;;23.69;46.44;100918.45;110956;1208;98958;-62
2023/06/10 08:34:35;;;;;;;9.00;4.80;;;;;;;23.80;46.29;100922.48;110927;1212;104432;-61
2023/06/10 08:37:00;;;;;;;11.50;4.80;;;;;;;23.93;45.84;100918.14;110857;1208;138126;-61
2023/06/10 08:39:25;;;;;;;11.60;4.60;;;;;;;24.03;45.38;100921.08;110973;1212;99054;-61
2023/06/10 08:42:10;;;;;;;13.20;4.80;;;;;;;24.12;45.05;100920.51;110937;1211;139422;-61
2023/06/10 08:44:39;;;;;;;13.10;4.50;;;;;;;24.17;44.90;100923.30;110982;1211;104519;-61
2023/06/10 08:47:14;;;;;;;12.60;4.90;;;;;;;24.20;44.26;100919.02;110801;1213;139482;-62
2023/06/10 08:49:47;;;;;;;9.90;4.40;;;;;;;24.22;44.09;100912.59;111020;1211;99082;-61
2023/06/10 08:52:20;;;;;;;10.90;3.90;;;;;;;24.34;44.13;100915.47;110950;1211;99037;-61
2023/06/10 08:55:10;;;;;;;17.00;4.80;;;;;;;24.43;43.27;100914.41;110995;1212;139734;-61
2023/06/10 08:57:36;;;;;;;10.10;4.60;;;;;;;24.42;42.46;100918.60;110961;1212;104383;-61
2023/06/10 09:00:02;;;;;;;6.60;3.80;;;;;;;24.45;42.44;100918.59;110801;1213;140559;-62
2023/06/10 09:02:28;;;;;;;12.80;4.70;;;;;;;24.55;42.36;100913.04;111007;1212;98919;-61
2023/06/10 09:04:56;;;;;;;8.20;4.10;;;;;;;24.64;41.85;100915.98;110957;1208;140308;-61
2023/06/10 09:07:22;;;;;;;9.30;4.20;;;;;;;24.74;41.55;100912.29;111216;1212;104201;-62
2023/06/10 09:09:49;;;;;;;10.30;4.30;;;;;;;24.82;41.08;100915.31;111003;1212;99069;-61
2023/06/10 09:12:15;;;;;;;6.30;4.10;;;;;;;24.87;40.60;100916.07;110802;1209;138306;-62
2023/06/10 09:14:42;;;;;;;10.70;4.00;;;;;;;24.95;40.28;100915.11;111067;1212;99067;-61
2023/06/10 09:17:07;;;;;;;6.20;3.90;;;;;;;25.03;39.86;100912.33;110798;1213;140166;-62
2023/06/10 09:19:32;;;;;;;10.90;4.10;;;;;;;25.11;39.46;100913.70;110969;1211;99050;-62
2023/06/10 09:21:58;;;;;;;15.60;4.00;;;;;;;25.21;39.13;100914.73;110971;1208;100325;-62
2023/06/10 09:24:24;;;;;;;12.40;5.00;;;;;;;25.27;38.86;100918.87;110912;1211;139589;-62
2023/06/10 09:26:50;;;;;;;9.70;4.10;;;;;;;25.34;38.47;100915.76;110975;1220;99775;-62
2023/06/10 09:29:16;;;;;;;9.20;4.10;;;;;;;25.40;37.98;100920.80;110892;1208;139385;-62
2023/06/10 09:31:43;;;;;;;10.50;4.10;;;;;;;25.46;37.67;100923.71;110964;1208;99139;-61
2023/06/10 09:34:13;;;;;;;5.30;3.10;;;;;;;25.55;37.62;100922.42;111045;1212;99074;-62
2023/06/10 09:36:40;;;;;;;5.20;4.20;;;;;;;25.64;37.32;100918.98;110908;1209;138719;-61
2023/06/10 09:39:17;;;;;;;12.10;5.10;;;;;;;25.71;36.87;100914.61;110967;1208;98964;-62
2023/06/10 09:41:44;;;;;;;6.90;4.30;;;;;;;25.80;36.74;100916.83;110837;1212;138413;-62
2023/06/10 09:44:21;;;;;;;5.80;4.70;;;;;;;25.83;36.26;100914.11;110938;1211;99053;-61
2023/06/10 09:46:54;;;;;;;11.80;4.00;;;;;;;25.76;36.03;100911.16;111062;1207;98975;-62
2023/06/10 09:49:19;;;;;;;10.90;4.30;;;;;;;25.83;36.06;100906.69;110964;1212;104706;-61
2023/06/10 09:51:55;;;;;;;7.20;4.40;;;;;;;25.98;36.09;100906.12;111003;1208;97933;-61
2023/06/10 09:54:21;;;;;;;7.30;3.90;;;;;;;26.05;35.96;100901.65;110897;1208;140483;-61
2023/06/10 09:56:52;;;;;;;8.80;4.50;;;;;;;26.10;35.77;100902.08;110955;1213;99338;-61
2023/06/10 09:59:31;;;;;;;7.70;4.60;;;;;;;26.13;35.66;100900.27;110911;1212;139144;-62
2023/06/10 10:01:57;;;;;;;12.30;5.10;;;;;;;26.18;35.58;100903.57;110936;1212;104200;-62
2023/06/10 10:04:26;;;;;;;6.30;3.80;;;;;;;26.23;35.26;100902.77;110955;1213;99828;-62
2023/06/10 10:06:51;;;;;;;11.70;4.50;;;;;;;26.24;35.39;100900.38;110810;1208;138571;-61
2023/06/10 10:09:16;;;;;;;8.80;4.30;;;;;;;26.30;35.29;100900.16;110908;1208;99024;-62
2023/06/10 10:11:43;;;;;;;6.50;4.00;;;;;;;26.39;35.14;100901.06;110894;1225;139877;-62
2023/06/10 10:14:10;;;;;;;7.40;3.90;;;;;;;26.43;34.73;100900.64;110987;1212;99192;-62
2023/06/10 10:16:43;;;;;;;11.30;4.20;;;;;;;26.48;34.63;100901.11;110915;1208;99088;-62
2023/06/10 10:19:17;;;;;;;6.80;4.20;;;;;;;26.49;34.29;100902.36;110787;1212;138965;-62
2023/06/10 10:21:52;;;;;;;8.20;4.50;;;;;;;26.50;34.24;100897.48;110983;1212;99047;-62
2023/06/10 10:24:26;;;;;;;5.30;4.10;;;;;;;26.59;34.30;100897.23;110824;1213;139877;-62
2023/06/10 10:26:58;;;;;;;10.80;5.50;;;;;;;26.68;34.03;100895.17;110973;1219;99005;-62
2023/06/10 10:29:36;;;;;;;9.40;4.20;;;;;;;26.71;33.79;100899.24;110809;1208;138671;-62
2023/06/10 10:32:03;;;;;;;9.20;4.60;;;;;;;26.79;33.67;100901.79;110925;1212;99027;-62
2023/06/10 10:34:53;;;;;;;21.90;4.70;;;;;;;26.89;33.27;100902.98;110992;1209;100433;-62
2023/06/10 10:37:20;;;;;;;14.00;4.10;;;;;;;26.89;32.20;100901.96;110941;1214;105354;-62
2023/06/10 10:39:45;;;;;;;11.10;4.40;;;;;;;26.80;31.93;100901.73;111008;1213;99076;-62
2023/06/10 10:42:12;;;;;;;4.90;3.60;;;;;;;26.79;31.31;100896.88;110795;1219;138846;-62
2023/06/10 10:44:38;;;;;;;6.50;3.70;;;;;;;26.75;30.89;100900.49;111090;1211;99076;-62
2023/06/10 10:47:08;;;;;;;10.60;4.60;;;;;;;26.75;30.94;100894.00;110950;1212;138195;-62
2023/06/10 10:49:35;;;;;;;17.40;4.10;;;;;;;26.83;30.67;100895.38;111017;1211;99077;-62
2023/06/10 10:52:01;;;;;;;7.30;4.20;;;;;;;26.88;30.64;100896.29;111121;1211;99037;-62
2023/06/10 10:54:36;;;;;;;9.20;4.00;;;;;;;26.94;30.59;100888.38;110851;1212;142620;-62
2023/06/10 10:57:12;;;;;;;14.10;4.40;;;;;;;27.04;30.39;100883.20;111077;1211;99007;-62
2023/06/10 11:00:04;;;;;;;9.50;5.00;;;;;;;27.10;30.29;100885.33;110849;1211;139240;-62
2023/06/10 11:02:43;;;;;;;6.90;3.70;;;;;;;27.20;30.41;100890.80;110974;1211;99007;-62
2023/06/10 11:05:11;;;;;;;8.40;4.20;;;;;;;27.28;30.45;100890.70;110887;1211;141924;-62
2023/06/10 11:07:36;;;;;;;9.80;4.10;;;;;;;27.38;30.43;100887.18;110965;1209;99028;-62